Time;durP1;ratioP1;P1;durP2;ratioP2;P2;SDS_P1;SDS_P2;PMS_P1;PMS_P2;Temp;Humidity;BMP_temperature;BMP_pressure;BME280_temperature;BME280_humidity;BME280_pressure;Samples;Min_cycle;Max_cycle;Signal;HPM_P1;HPM_P2
2022/09/21 00:00:31;;;;;;;4.75;1.98;;;;;;;;;;5077541;28;20051;-89
2022/09/21 00:02:58;;;;;;;3.90;2.35;;;;;;;;;;5095457;28;20048;-88
2022/09/21 00:05:25;;;;;;;2.42;2.33;;;;;;;;;;5078018;28;20104;-88
2022/09/21 00:07:52;;;;;;;2.70;2.50;;;;;;;;;;5095398;28;20048;-89
2022/09/21 00:10:20;;;;;;;2.60;2.50;;;;;;;;;;5077634;28;20079;-86
2022/09/21 00:12:47;;;;;;;2.65;2.45;;;;;;;;;;5077578;28;20040;-87
2022/09/21 00:15:16;;;;;;;3.05;2.58;;;;;;;;;;5095270;28;20048;-89
2022/09/21 00:17:44;;;;;;;1.85;1.75;;;;;;;;;;5077730;28;20047;-89
2022/09/21 00:20:11;;;;;;;2.72;2.22;;;;;;;;;;5095305;28;20048;-89
2022/09/21 00:22:38;;;;;;;1.80;1.70;;;;;;;;;;5095146;28;20066;-87
2022/09/21 00:25:06;;;;;;;2.38;1.98;;;;;;;;;;5077454;28;20082;-88
2022/09/21 00:27:34;;;;;;;2.50;1.95;;;;;;;;;;5077108;28;20052;-89
2022/09/21 00:30:02;;;;;;;2.00;1.90;;;;;;;;;;5076754;28;20040;-88
2022/09/21 00:32:30;;;;;;;2.38;2.20;;;;;;;;;;5077133;28;20063;-88
2022/09/21 00:34:57;;;;;;;2.20;2.10;;;;;;;;;;5077068;28;20051;-87
2022/09/21 00:37:24;;;;;;;1.90;1.80;;;;;;;;;;5094722;28;20052;-88
2022/09/21 00:39:52;;;;;;;2.78;2.00;;;;;;;;;;5076982;28;20051;-88
2022/09/21 00:42:20;;;;;;;1.83;1.73;;;;;;;;;;5076709;28;20087;-89
2022/09/21 00:44:47;;;;;;;2.03;1.92;;;;;;;;;;5076946;28;20044;-88
2022/09/21 00:47:16;;;;;;;2.13;1.95;;;;;;;;;;5076613;28;20044;-88
2022/09/21 00:49:44;;;;;;;1.92;1.83;;;;;;;;;;5094544;28;20135;-88
2022/09/21 00:52:13;;;;;;;2.20;1.95;;;;;;;;;;5076444;28;20047;-88
2022/09/21 00:54:43;;;;;;;2.30;2.20;;;;;;;;;;5080354;28;20052;-87
2022/09/21 00:57:10;;;;;;;2.00;1.90;;;;;;;;;;5086187;28;20546;-88
2022/09/21 00:59:39;;;;;;;2.13;2.03;;;;;;;;;;5076596;28;20047;-88
2022/09/21 01:02:07;;;;;;;2.22;2.13;;;;;;;;;;5076818;28;20075;-88
2022/09/21 01:04:35;;;;;;;1.63;1.55;;;;;;;;;;5076259;28;20078;-88
2022/09/21 01:07:04;;;;;;;1.95;1.85;;;;;;;;;;5076436;28;20048;-88
2022/09/21 01:09:31;;;;;;;2.00;1.90;;;;;;;;;;5076451;28;20105;-87
2022/09/21 01:12:06;;;;;;;2.90;1.95;;;;;;;;;;5094099;28;20482;-87
2022/09/21 01:14:45;;;;;;;2.83;2.30;;;;;;;;;;5076155;28;20135;-87
2022/09/21 01:17:17;;;;;;;5.75;2.00;;;;;;;;;;5076149;28;20063;-87
2022/09/21 01:20:03;;;;;;;2.30;1.83;;;;;;;;;;5075950;28;20502;-88
2022/09/21 01:22:47;;;;;;;1.80;1.70;;;;;;;;;;5075864;28;20052;-87
2022/09/21 01:25:27;;;;;;;2.22;2.03;;;;;;;;;;5093916;28;20048;-88
2022/09/21 01:28:05;;;;;;;3.15;1.95;;;;;;;;;;5092602;28;20043;-88
2022/09/21 01:30:34;;;;;;;2.10;2.00;;;;;;;;;;5075888;28;20047;-89
2022/09/21 01:33:01;;;;;;;2.47;2.38;;;;;;;;;;5076105;28;20546;-88
2022/09/21 01:35:36;;;;;;;1.92;1.83;;;;;;;;;;5076959;28;20048;-88
2022/09/21 01:38:06;;;;;;;1.90;1.80;;;;;;;;;;5095578;28;20048;-88
2022/09/21 01:40:36;;;;;;;2.42;1.90;;;;;;;;;;5095036;28;20051;-87
2022/09/21 01:43:05;;;;;;;2.35;1.60;;;;;;;;;;5075889;28;20048;-87
2022/09/21 01:45:34;;;;;;;1.48;1.38;;;;;;;;;;5093468;28;20059;-88
2022/09/21 01:48:02;;;;;;;2.00;1.90;;;;;;;;;;5093607;28;20101;-88
2022/09/21 01:50:32;;;;;;;2.95;2.05;;;;;;;;;;5075745;28;20506;-89
2022/09/21 01:53:07;;;;;;;2.65;1.70;;;;;;;;;;5075967;28;20087;-87
2022/09/21 01:55:37;;;;;;;2.00;1.90;;;;;;;;;;5075832;28;20048;-89
2022/09/21 01:58:10;;;;;;;2.13;2.03;;;;;;;;;;5075540;28;20059;-88
2022/09/21 02:00:38;;;;;;;1.60;1.50;;;;;;;;;;5075986;28;20044;-88
2022/09/21 02:03:08;;;;;;;1.85;1.75;;;;;;;;;;5093568;28;20525;-88
2022/09/21 02:05:35;;;;;;;1.80;1.70;;;;;;;;;;5075487;28;20045;-88
2022/09/21 02:08:04;;;;;;;1.98;1.77;;;;;;;;;;5097498;28;20058;-87
2022/09/21 02:10:38;;;;;;;1.85;1.75;;;;;;;;;;5079784;28;20127;-88
2022/09/21 02:13:06;;;;;;;2.95;1.90;;;;;;;;;;5079744;28;20059;-88
2022/09/21 02:15:46;;;;;;;1.95;1.85;;;;;;;;;;5097226;28;20044;-88
2022/09/21 02:18:19;;;;;;;2.20;2.08;;;;;;;;;;5079170;28;20048;-88
2022/09/21 02:20:46;;;;;;;;;;;;;;;;;;5097818;28;20044;-88
2022/09/21 02:23:25;;;;;;;2.40;1.73;;;;;;;;;;5079235;28;20307;-88
2022/09/21 02:25:58;;;;;;;4.90;1.90;;;;;;;;;;5079498;28;20051;-88
2022/09/21 02:29:01;;;;;;;1.58;1.58;;;;;;;;;;5079914;28;20044;-88
2022/09/21 02:31:28;;;;;;;2.00;1.88;;;;;;;;;;5047066;28;20059;-88
2022/09/21 02:33:58;;;;;;;1.90;1.80;;;;;;;;;;5079486;28;20437;-88
2022/09/21 02:36:34;;;;;;;3.10;1.73;;;;;;;;;;5079303;28;20058;-88
2022/09/21 02:39:15;;;;;;;2.45;1.92;;;;;;;;;;5079145;28;20058;-89
2022/09/21 02:41:56;;;;;;;2.40;2.30;;;;;;;;;;5079482;28;20048;-88
2022/09/21 02:44:32;;;;;;;2.95;2.80;;;;;;;;;;5079125;28;20052;-89
2022/09/21 02:47:22;;;;;;;6.18;5.57;;;;;;;;;;5079246;28;20051;-89
2022/09/21 02:49:53;;;;;;;3.08;2.88;;;;;;;;;;5071343;28;20048;-87
2022/09/21 02:52:21;;;;;;;4.80;2.20;;;;;;;;;;5079070;28;20501;-86
2022/09/21 02:54:51;;;;;;;2.35;2.20;;;;;;;;;;5078621;28;20048;-87
2022/09/21 02:57:20;;;;;;;5.40;2.17;;;;;;;;;;5078841;28;20158;-88
2022/09/21 02:59:47;;;;;;;2.55;2.20;;;;;;;;;;5096693;28;20484;-88
2022/09/21 03:02:14;;;;;;;2.88;2.67;;;;;;;;;;5078618;28;20044;-89
2022/09/21 03:04:45;;;;;;;3.75;3.55;;;;;;;;;;5096327;28;20099;-89
2022/09/21 03:07:12;;;;;;;3.38;3.17;;;;;;;;;;5096695;28;20135;-89
2022/09/21 03:09:39;;;;;;;3.97;3.67;;;;;;;;;;5096465;28;20571;-87
2022/09/21 03:12:06;;;;;;;3.53;3.33;;;;;;;;;;5078756;28;20044;-88
2022/09/21 03:14:33;;;;;;;7.10;6.40;;;;;;;;;;5096185;28;20051;-89
2022/09/21 03:17:01;;;;;;;12.48;11.27;;;;;;;;;;5078289;28;20048;-90
2022/09/21 03:19:28;;;;;;;11.30;10.20;;;;;;;;;;5078573;28;20419;-88
2022/09/21 03:21:55;;;;;;;4.28;3.92;;;;;;;;;;5096185;28;20385;-88
2022/09/21 03:27:08;;;;;;;6.53;3.30;;;;;;;;;;5095883;28;20039;-88
2022/09/21 03:29:35;;;;;;;3.95;3.75;;;;;;;;;;5096026;28;20051;-89
2022/09/21 03:32:03;;;;;;;3.30;3.03;;;;;;;;;;5078400;28;20476;-87
2022/09/21 03:34:33;;;;;;;5.13;3.65;;;;;;;;;;5095775;28;20108;-88
2022/09/21 03:37:00;;;;;;;3.42;3.15;;;;;;;;;;5078545;28;20048;-88
2022/09/21 03:39:28;;;;;;;4.25;3.30;;;;;;;;;;5077827;28;20068;-89
2022/09/21 03:41:55;;;;;;;3.55;3.35;;;;;;;;;;5078176;28;20122;-88
2022/09/21 03:44:24;;;;;;;3.40;3.20;;;;;;;;;;5077999;28;20066;-88
2022/09/21 03:46:53;;;;;;;4.47;4.07;;;;;;;;;;5096074;28;20052;-88
2022/09/21 03:49:20;;;;;;;3.53;3.33;;;;;;;;;;5096412;28;20088;-88
2022/09/21 03:51:47;;;;;;;4.07;3.78;;;;;;;;;;5081391;28;20044;-88
2022/09/21 03:54:14;;;;;;;7.10;3.92;;;;;;;;;;5100659;28;20081;-89
2022/09/21 03:56:45;;;;;;;3.70;3.40;;;;;;;;;;5095581;28;20048;-87
2022/09/21 03:59:12;;;;;;;3.50;3.30;;;;;;;;;;5077785;28;20052;-88
2022/09/21 04:01:40;;;;;;;3.42;3.15;;;;;;;;;;5095493;28;20420;-89
2022/09/21 04:04:07;;;;;;;3.25;3.05;;;;;;;;;;5095421;28;20044;-88
2022/09/21 04:06:35;;;;;;;2.83;2.72;;;;;;;;;;5077612;28;20506;-89
2022/09/21 04:09:02;;;;;;;3.22;3.03;;;;;;;;;;5095545;28;20048;-88
2022/09/21 04:11:31;;;;;;;2.92;2.72;;;;;;;;;;5095110;28;20052;-87
2022/09/21 04:13:58;;;;;;;4.40;2.65;;;;;;;;;;5077295;28;20131;-87
2022/09/21 04:16:26;;;;;;;3.00;2.72;;;;;;;;;;5077150;28;20047;-89
2022/09/21 04:18:53;;;;;;;3.00;2.70;;;;;;;;;;5076938;28;20055;-89
2022/09/21 04:21:21;;;;;;;3.25;3.00;;;;;;;;;;5094875;28;20432;-88
2022/09/21 04:23:48;;;;;;;3.17;3.00;;;;;;;;;;5077077;28;20500;-88
2022/09/21 04:26:20;;;;;;;2.30;2.20;;;;;;;;;;5094650;28;20040;-88
2022/09/21 04:28:48;;;;;;;2.65;2.45;;;;;;;;;;5094354;28;20048;-88
2022/09/21 04:31:15;;;;;;;2.75;2.63;;;;;;;;;;5076985;28;20056;-88
2022/09/21 04:33:42;;;;;;;3.25;2.97;;;;;;;;;;5077162;28;20408;-88
2022/09/21 04:36:09;;;;;;;5.40;2.67;;;;;;;;;;5094376;28;20044;-88
2022/09/21 04:38:37;;;;;;;3.17;2.30;;;;;;;;;;5076886;28;20048;-88
2022/09/21 04:41:04;;;;;;;2.60;2.50;;;;;;;;;;5077472;28;20051;-88
2022/09/21 04:43:32;;;;;;;2.83;2.60;;;;;;;;;;5076870;28;20147;-88
2022/09/21 04:46:04;;;;;;;2.42;2.22;;;;;;;;;;5076812;28;20050;-88
2022/09/21 04:48:31;;;;;;;2.25;2.13;;;;;;;;;;5076830;28;20051;-88
2022/09/21 04:50:58;;;;;;;2.42;2.22;;;;;;;;;;5094676;28;20040;-88
2022/09/21 04:53:25;;;;;;;2.50;2.40;;;;;;;;;;5094603;28;20048;-89
2022/09/21 04:55:54;;;;;;;2.67;2.50;;;;;;;;;;5094468;28;20567;-88
2022/09/21 04:58:22;;;;;;;2.30;2.17;;;;;;;;;;5076157;28;20055;-87
2022/09/21 05:00:51;;;;;;;2.67;2.47;;;;;;;;;;5076614;28;20048;-87
2022/09/21 05:03:18;;;;;;;2.20;2.10;;;;;;;;;;5094059;28;20052;-87
2022/09/21 05:05:53;;;;;;;2.60;2.40;;;;;;;;;;5076156;28;20051;-87
2022/09/21 05:11:07;;;;;;;2.30;2.10;;;;;;;;;;5093963;28;20480;-88
2022/09/21 05:13:34;;;;;;;2.10;2.00;;;;;;;;;;5076133;28;20058;-86
2022/09/21 05:16:01;;;;;;;2.08;1.98;;;;;;;;;;5076091;28;20048;-88
2022/09/21 05:18:29;;;;;;;3.28;1.85;;;;;;;;;;5076506;28;20048;-88
2022/09/21 05:20:57;;;;;;;2.00;1.83;;;;;;;;;;5093853;28;20051;-89
2022/09/21 05:23:24;;;;;;;1.80;1.70;;;;;;;;;;5093713;28;20059;-88
2022/09/21 05:25:52;;;;;;;3.47;2.17;;;;;;;;;;5076032;28;20138;-88
2022/09/21 05:28:19;;;;;;;2.03;1.92;;;;;;;;;;5076000;28;20051;-88
2022/09/21 05:31:04;;;;;;;4.72;2.15;;;;;;;;;;5093901;28;20051;-88
2022/09/21 05:33:51;;;;;;;2.70;1.80;;;;;;;;;;5093816;28;20052;-89
2022/09/21 05:36:38;;;;;;;1.90;1.80;;;;;;;;;;5093611;28;20050;-89
2022/09/21 05:39:06;;;;;;;2.05;1.92;;;;;;;;;;5093619;28;20408;-88
2022/09/21 05:41:34;;;;;;;1.95;1.85;;;;;;;;;;5092533;28;20499;-87
2022/09/21 05:44:01;;;;;;;1.60;1.50;;;;;;;;;;5093360;28;20052;-88
2022/09/21 05:46:52;;;;;;;1.63;1.63;;;;;;;;;;5093372;28;20048;-88
2022/09/21 05:49:27;;;;;;;2.10;2.00;;;;;;;;;;5076249;28;20135;-88
2022/09/21 05:52:19;;;;;;;1.73;1.67;;;;;;;;;;5093529;28;20043;-87
2022/09/21 05:54:49;;;;;;;1.73;1.65;;;;;;;;;;5093574;28;20051;-88
2022/09/21 05:57:22;;;;;;;1.73;1.63;;;;;;;;;;5076024;28;20448;-88
2022/09/21 06:00:02;;;;;;;1.60;1.50;;;;;;;;;;5076387;28;20325;-86
2022/09/21 06:02:48;;;;;;;2.45;1.65;;;;;;;;;;5075717;28;20484;-88
2022/09/21 06:05:16;;;;;;;3.85;1.90;;;;;;;;;;5093183;28;20506;-89
2022/09/21 06:07:43;;;;;;;1.67;1.55;;;;;;;;;;5075545;28;20059;-87
2022/09/21 06:10:12;;;;;;;1.95;1.75;;;;;;;;;;5093177;28;20496;-88
2022/09/21 06:12:39;;;;;;;6.97;2.00;;;;;;;;;;5093408;28;20041;-87
2022/09/21 06:15:07;;;;;;;4.93;2.08;;;;;;;;;;5093221;28;20480;-87
2022/09/21 06:17:34;;;;;;;5.78;2.00;;;;;;;;;;5075566;28;20055;-87
2022/09/21 06:20:02;;;;;;;3.85;2.15;;;;;;;;;;5075264;28;20056;-87
2022/09/21 06:22:29;;;;;;;6.18;1.52;;;;;;;;;;5093047;28;20063;-88
2022/09/21 06:24:56;;;;;;;2.35;1.05;;;;;;;;;;5093398;28;20048;-88
2022/09/21 06:27:23;;;;;;;3.97;1.48;;;;;;;;;;5075318;28;20063;-87
2022/09/21 06:29:51;;;;;;;1.80;1.70;;;;;;;;;;5093361;28;20055;-87
2022/09/21 06:32:19;;;;;;;2.97;1.50;;;;;;;;;;5075410;28;20055;-88
2022/09/21 06:34:46;;;;;;;24.75;2.80;;;;;;;;;;5075278;28;20067;-87
2022/09/21 06:37:13;;;;;;;5.20;1.50;;;;;;;;;;5075504;28;20051;-87
2022/09/21 06:39:40;;;;;;;2.90;1.45;;;;;;;;;;5092966;28;20048;-87
2022/09/21 06:42:08;;;;;;;1.75;1.25;;;;;;;;;;5092987;28;20526;-88
2022/09/21 06:44:35;;;;;;;1.73;1.63;;;;;;;;;;5074914;28;20484;-87
2022/09/21 06:47:02;;;;;;;4.13;1.42;;;;;;;;;;5093298;28;20079;-87
2022/09/21 06:49:29;;;;;;;0.93;0.80;;;;;;;;;;5075002;28;20044;-87
2022/09/21 06:51:57;;;;;;;5.53;1.67;;;;;;;;;;5076079;28;20051;-88
2022/09/21 06:54:24;;;;;;;5.53;2.03;;;;;;;;;;5078932;28;20411;-87
2022/09/21 06:56:51;;;;;;;3.47;1.92;;;;;;;;;;5096748;28;20052;-87
2022/09/21 06:59:21;;;;;;;1.60;1.50;;;;;;;;;;5079049;28;20052;-87
2022/09/21 07:01:48;;;;;;;5.75;1.20;;;;;;;;;;5078782;28;20135;-87
2022/09/21 07:04:16;;;;;;;5.63;1.98;;;;;;;;;;5078801;28;20086;-87
2022/09/21 07:06:46;;;;;;;7.40;1.73;;;;;;;;;;5096736;28;20047;-88
2022/09/21 07:09:14;;;;;;;1.30;1.20;;;;;;;;;;5096454;28;20058;-87
2022/09/21 07:12:01;;;;;;;1.88;1.15;;;;;;;;;;5096602;28;20055;-87
2022/09/21 07:14:28;;;;;;;4.80;2.05;;;;;;;;;;5078327;28;20411;-86
2022/09/21 07:16:55;;;;;;;3.60;2.13;;;;;;;;;;5078494;28;20046;-87
2022/09/21 07:19:22;;;;;;;1.58;1.48;;;;;;;;;;5078309;28;20052;-87
2022/09/21 07:21:49;;;;;;;6.68;1.77;;;;;;;;;;5078278;28;20048;-87
2022/09/21 07:24:16;;;;;;;6.50;1.73;;;;;;;;;;5095801;28;20055;-87
2022/09/21 07:26:43;;;;;;;1.30;0.80;;;;;;;;;;5078070;28;20047;-87
2022/09/21 07:29:11;;;;;;;1.02;1.02;;;;;;;;;;5094653;28;20044;-88
2022/09/21 07:31:38;;;;;;;2.75;2.30;;;;;;;;;;5078329;28;20044;-87
2022/09/21 07:34:05;;;;;;;2.40;2.30;;;;;;;;;;5095799;28;20051;-87
2022/09/21 07:36:32;;;;;;;4.32;1.30;;;;;;;;;;5095605;28;20492;-87
2022/09/21 07:38:59;;;;;;;1.63;1.27;;;;;;;;;;5095719;28;20136;-85
2022/09/21 07:41:27;;;;;;;1.98;1.10;;;;;;;;;;5077700;28;20063;-87
2022/09/21 07:43:54;;;;;;;2.20;1.90;;;;;;;;;;5095617;28;20052;-87
2022/09/21 07:46:21;;;;;;;1.77;1.30;;;;;;;;;;5077751;28;20047;-86
2022/09/21 07:48:48;;;;;;;2.60;1.40;;;;;;;;;;5077686;28;20051;-87
2022/09/21 07:51:15;;;;;;;2.78;1.02;;;;;;;;;;5095164;28;20507;-86
2022/09/21 07:53:43;;;;;;;1.92;0.90;;;;;;;;;;5077379;28;20044;-86
2022/09/21 07:56:12;;;;;;;6.25;1.30;;;;;;;;;;5077343;28;20052;-86
2022/09/21 08:01:26;;;;;;;4.07;1.40;;;;;;;;;;5095137;28;20052;-86
2022/09/21 08:03:54;;;;;;;4.90;1.33;;;;;;;;;;5094254;28;20413;-87
2022/09/21 08:06:22;;;;;;;3.00;1.00;;;;;;;;;;5077107;28;20055;-87
2022/09/21 08:08:49;;;;;;;3.80;1.08;;;;;;;;;;5095208;28;20051;-87
2022/09/21 08:11:24;;;;;;;;;;;;;;;;;;5078842;28;20040;-87
2022/09/21 08:13:52;;;;;;;2.17;0.50;;;;;;;;;;5077270;28;20482;-87
2022/09/21 08:16:19;;;;;;;2.25;0.50;;;;;;;;;;5077348;28;20549;-87
2022/09/21 08:18:47;;;;;;;5.68;1.02;;;;;;;;;;5094867;28;20089;-88
2022/09/21 08:21:14;;;;;;;4.22;0.70;;;;;;;;;;5077163;28;20051;-88
2022/09/21 08:23:41;;;;;;;12.15;1.05;;;;;;;;;;5094619;28;20051;-88
2022/09/21 08:26:17;;;;;;;14.68;1.85;;;;;;;;;;5076835;28;20055;-88
2022/09/21 08:28:48;;;;;;;6.68;1.20;;;;;;;;;;5077253;28;20046;-87
2022/09/21 08:31:16;;;;;;;35.22;7.20;;;;;;;;;;5076885;28;20093;-88
2022/09/21 08:33:43;;;;;;;58.88;12.75;;;;;;;;;;5076746;28;20510;-88
2022/09/21 08:36:10;;;;;;;37.58;5.63;;;;;;;;;;5094554;28;20380;-88
2022/09/21 08:38:38;;;;;;;59.58;18.58;;;;;;;;;;5094523;28;20059;-90
2022/09/21 08:41:17;;;;;;;75.13;20.25;;;;;;;;;;5076803;28;20052;-91
2022/09/21 08:43:45;;;;;;;69.13;19.98;;;;;;;;;;5076979;28;20040;-90
2022/09/21 08:46:17;;;;;;;70.75;19.58;;;;;;;;;;5076517;28;20052;-91
2022/09/21 08:48:56;;;;;;;31.63;5.57;;;;;;;;;;5076716;28;20113;-90
2022/09/21 08:51:28;;;;;;;13.25;2.92;;;;;;;;;;5076704;28;20059;-92
2022/09/21 08:53:57;;;;;;;7.72;1.80;;;;;;;;;;5076547;28;20063;-92
2022/09/21 08:56:26;;;;;;;10.57;1.80;;;;;;;;;;5076312;28;20095;-91
2022/09/21 08:59:14;;;;;;;7.05;1.38;;;;;;;;;;5094388;28;20043;-92
2022/09/21 09:01:44;;;;;;;3.03;1.15;;;;;;;;;;5076601;28;20055;-92
2022/09/21 09:04:30;;;;;;;10.38;1.58;;;;;;;;;;5094260;28;20063;-90
2022/09/21 09:07:08;;;;;;;2.40;1.02;;;;;;;;;;5076376;28;20051;-90
2022/09/21 09:09:38;;;;;;;3.88;0.70;;;;;;;;;;5076457;28;20055;-88
2022/09/21 09:12:13;;;;;;;2.47;0.80;;;;;;;;;;5076750;28;20055;-92
2022/09/21 09:14:40;;;;;;;1.77;0.73;;;;;;;;;;5076524;28;20044;-92
2022/09/21 09:17:26;;;;;;;2.45;0.88;;;;;;;;;;5076410;28;20399;-86
2022/09/21 09:20:14;;;;;;;8.02;1.05;;;;;;;;;;5076214;28;20055;-90
2022/09/21 09:22:52;;;;;;;3.25;0.75;;;;;;;;;;5094252;28;20135;-91
2022/09/21 09:25:23;;;;;;;1.38;0.70;;;;;;;;;;5076705;28;20815;-89
2022/09/21 09:27:53;;;;;;;1.17;0.60;;;;;;;;;;5076114;28;20044;-93
2022/09/21 09:30:24;;;;;;;1.02;0.50;;;;;;;;;;5075934;28;20055;-90
2022/09/21 09:32:59;;;;;;;4.28;1.23;;;;;;;;;;5076225;28;20058;-92
2022/09/21 09:35:37;;;;;;;6.00;0.90;;;;;;;;;;5094192;28;20040;-90
2022/09/21 09:38:08;;;;;;;1.70;0.63;;;;;;;;;;5076167;28;20048;-87
2022/09/21 09:40:45;;;;;;;4.28;0.60;;;;;;;;;;5076425;28;20093;-88
2022/09/21 09:43:22;;;;;;;2.15;0.68;;;;;;;;;;5093963;28;20495;-91
2022/09/21 09:46:00;;;;;;;1.98;0.70;;;;;;;;;;5093649;28;20067;-89
2022/09/21 09:48:27;;;;;;;5.68;0.60;;;;;;;;;;5076181;28;20051;-94
2022/09/21 09:50:54;;;;;;;1.83;0.70;;;;;;;;;;5094011;28;20041;-91
2022/09/21 09:53:24;;;;;;;2.33;0.70;;;;;;;;;;5093635;28;20044;-90
2022/09/21 09:55:53;;;;;;;2.42;0.73;;;;;;;;;;5076014;28;20060;-91
2022/09/21 09:58:39;;;;;;;2.08;0.60;;;;;;;;;;5076153;28;20052;-90
2022/09/21 10:01:06;;;;;;;3.25;0.70;;;;;;;;;;5075778;28;20524;-90
2022/09/21 10:03:35;;;;;;;1.30;0.70;;;;;;;;;;5075679;28;20048;-88
2022/09/21 10:06:02;;;;;;;3.13;0.82;;;;;;;;;;5093833;28;20056;-92
2022/09/21 10:08:31;;;;;;;1.48;0.47;;;;;;;;;;5075931;28;20502;-90
2022/09/21 10:10:58;;;;;;;1.65;0.70;;;;;;;;;;5075769;28;20052;-92
2022/09/21 10:13:29;;;;;;;2.03;0.63;;;;;;;;;;5093478;28;20048;-92
2022/09/21 10:16:18;;;;;;;2.45;0.57;;;;;;;;;;5076043;28;20551;-90
2022/09/21 10:18:45;;;;;;;2.70;0.75;;;;;;;;;;5075928;28;20411;-92
2022/09/21 10:21:18;;;;;;;2.30;0.82;;;;;;;;;;5076555;28;20433;-90
2022/09/21 10:23:58;;;;;;;2.15;0.60;;;;;;;;;;5075276;28;20052;-91
2022/09/21 10:26:31;;;;;;;2.25;0.75;;;;;;;;;;5075757;28;20059;-89
2022/09/21 10:28:59;;;;;;;10.15;1.10;;;;;;;;;;5079453;28;20044;-87
2022/09/21 10:31:30;;;;;;;7.85;1.35;;;;;;;;;;5079237;28;20058;-90
2022/09/21 10:34:04;;;;;;;4.32;0.85;;;;;;;;;;5097648;28;20047;-94
2022/09/21 10:36:35;;;;;;;6.18;0.90;;;;;;;;;;5079910;28;20131;-90
2022/09/21 10:39:10;;;;;;;4.88;0.80;;;;;;;;;;5079582;28;20048;-90
2022/09/21 10:41:37;;;;;;;3.92;0.90;;;;;;;;;;5079345;28;20054;-91
2022/09/21 10:44:14;;;;;;;1.83;0.70;;;;;;;;;;5079198;28;20105;-91
2022/09/21 10:46:41;;;;;;;1.40;0.88;;;;;;;;;;5079066;28;20495;-89
2022/09/21 10:49:16;;;;;;;4.15;0.93;;;;;;;;;;5079521;28;20449;-89
2022/09/21 10:51:45;;;;;;;3.35;0.70;;;;;;;;;;5078983;28;20066;-91
2022/09/21 10:54:17;;;;;;;3.35;0.88;;;;;;;;;;5096679;28;20062;-90
2022/09/21 10:57:10;;;;;;;1.60;0.80;;;;;;;;;;5079026;28;20048;-92
2022/09/21 10:59:38;;;;;;;4.32;1.20;;;;;;;;;;5093091;28;20079;-90
2022/09/21 11:02:25;;;;;;;3.30;1.00;;;;;;;;;;5078875;28;20055;-90
2022/09/21 11:04:56;;;;;;;4.15;1.08;;;;;;;;;;5078695;28;20055;-90
2022/09/21 11:07:47;;;;;;;2.72;0.95;;;;;;;;;;5078962;28;20048;-91
2022/09/21 11:10:23;;;;;;;2.50;0.85;;;;;;;;;;5086797;28;20131;-92
2022/09/21 11:13:03;;;;;;;2.90;0.93;;;;;;;;;;5096369;28;20056;-90
2022/09/21 11:15:35;;;;;;;2.35;0.77;;;;;;;;;;5078609;28;20111;-91
2022/09/21 11:18:13;;;;;;;3.65;1.00;;;;;;;;;;5078622;28;20575;-89
2022/09/21 11:20:47;;;;;;;1.95;0.75;;;;;;;;;;5096497;28;20055;-91
2022/09/21 11:23:33;;;;;;;4.82;0.88;;;;;;;;;;5078456;28;20063;-94
2022/09/21 11:26:10;;;;;;;5.28;1.17;;;;;;;;;;5096605;28;20048;-92
2022/09/21 11:29:05;;;;;;;4.65;0.93;;;;;;;;;;5078891;28;20043;-92
2022/09/21 11:31:42;;;;;;;2.00;0.95;;;;;;;;;;5050349;28;20143;-95
2022/09/21 11:34:33;;;;;;;4.95;1.08;;;;;;;;;;5077993;28;20063;-90
2022/09/21 11:37:18;;;;;;;3.20;0.90;;;;;;;;;;5096876;28;20056;-93
2022/09/21 11:39:46;;;;;;;4.25;0.88;;;;;;;;;;5078595;28;20484;-92
2022/09/21 11:42:13;;;;;;;3.85;0.80;;;;;;;;;;5078193;28;20491;-93
2022/09/21 11:44:49;;;;;;;2.42;0.75;;;;;;;;;;5095808;28;20052;-88
2022/09/21 11:47:29;;;;;;;2.50;0.88;;;;;;;;;;5077900;28;20040;-91
2022/09/21 11:49:56;;;;;;;4.75;0.80;;;;;;;;;;5079117;28;20055;-91
2022/09/21 11:52:53;;;;;;;2.83;0.85;;;;;;;;;;5080964;28;20044;-92
2022/09/21 11:55:43;;;;;;;3.63;0.93;;;;;;;;;;5077663;28;20052;-90
2022/09/21 11:58:24;;;;;;;4.13;1.10;;;;;;;;;;5077793;28;20044;-90
2022/09/21 12:01:10;;;;;;;3.00;0.85;;;;;;;;;;5095620;28;20060;-88
2022/09/21 12:03:49;;;;;;;2.55;0.80;;;;;;;;;;5077805;28;20048;-86
2022/09/21 12:06:22;;;;;;;3.72;0.88;;;;;;;;;;5095309;28;20048;-87
2022/09/21 12:08:49;;;;;;;1.65;0.70;;;;;;;;;;5077591;28;20135;-88
2022/09/21 12:11:24;;;;;;;5.55;0.90;;;;;;;;;;5095152;28;20048;-89
2022/09/21 12:14:14;;;;;;;1.42;0.52;;;;;;;;;;5095454;28;20044;-91
2022/09/21 12:16:49;;;;;;;2.85;0.52;;;;;;;;;;5077024;28;20052;-95
2022/09/21 12:19:32;;;;;;;2.05;0.80;;;;;;;;;;5077853;28;20063;-87
2022/09/21 12:22:04;;;;;;;2.72;1.00;;;;;;;;;;5077357;28;20079;-89
2022/09/21 12:24:35;;;;;;;2.83;0.90;;;;;;;;;;5077076;28;20052;-88
2022/09/21 12:27:21;;;;;;;3.30;0.73;;;;;;;;;;5095115;28;20044;-88
2022/09/21 12:29:52;;;;;;;2.17;0.60;;;;;;;;;;5077312;28;20496;-91
2022/09/21 12:32:38;;;;;;;3.65;1.35;;;;;;;;;;5076755;28;20055;-90
2022/09/21 12:35:09;;;;;;;4.47;0.85;;;;;;;;;;5094762;28;20047;-88
2022/09/21 12:37:40;;;;;;;2.75;0.85;;;;;;;;;;5077284;28;20040;-89
2022/09/21 12:40:23;;;;;;;6.30;0.85;;;;;;;;;;5076882;28;20056;-93
2022/09/21 12:43:09;;;;;;;1.63;0.50;;;;;;;;;;5095053;28;20058;-91
2022/09/21 12:45:41;;;;;;;2.45;0.50;;;;;;;;;;5076695;28;20052;-93
2022/09/21 12:48:27;;;;;;;1.42;0.60;;;;;;;;;;5076609;28;20094;-92
2022/09/21 12:51:18;;;;;;;3.97;0.80;;;;;;;;;;5093952;28;20476;-90
2022/09/21 12:53:47;;;;;;;3.05;1.08;;;;;;;;;;5084662;28;20048;-90
2022/09/21 12:56:17;;;;;;;2.63;0.85;;;;;;;;;;5094597;28;20097;-88
2022/09/21 12:58:48;;;;;;;2.10;0.90;;;;;;;;;;5094654;28;20048;-90
2022/09/21 13:01:25;;;;;;;3.83;0.60;;;;;;;;;;5076204;28;20056;-90
2022/09/21 13:04:11;;;;;;;3.40;0.77;;;;;;;;;;5076376;28;20048;-92
2022/09/21 13:06:38;;;;;;;2.55;0.70;;;;;;;;;;5076584;28;20063;-89
2022/09/21 13:09:05;;;;;;;6.60;0.82;;;;;;;;;;5076781;28;20051;-88
2022/09/21 13:11:49;;;;;;;2.92;0.70;;;;;;;;;;5077260;28;20522;-92
2022/09/21 13:14:17;;;;;;;2.08;0.80;;;;;;;;;;5076481;28;20048;-92
2022/09/21 13:16:52;;;;;;;3.80;0.50;;;;;;;;;;5076010;28;20060;-90
2022/09/21 13:19:24;;;;;;;1.50;0.40;;;;;;;;;;5076984;28;20051;-91
2022/09/21 13:22:13;;;;;;;2.00;0.55;;;;;;;;;;5076091;28;20060;-91
2022/09/21 13:24:44;;;;;;;2.83;0.55;;;;;;;;;;5094129;28;20079;-92
2022/09/21 13:27:12;;;;;;;2.70;1.00;;;;;;;;;;5076257;28;20048;-93
2022/09/21 13:29:41;;;;;;;4.60;0.60;;;;;;;;;;5076702;28;20052;-89
2022/09/21 13:32:12;;;;;;;3.53;0.82;;;;;;;;;;5076106;28;20055;-94
2022/09/21 13:34:41;;;;;;;1.85;0.85;;;;;;;;;;5076292;28;20048;-92
2022/09/21 13:37:12;;;;;;;3.30;0.82;;;;;;;;;;5076025;28;20055;-94
2022/09/21 13:39:43;;;;;;;2.13;0.82;;;;;;;;;;5075846;28;20074;-90
2022/09/21 13:42:28;;;;;;;5.10;0.60;;;;;;;;;;5076752;28;20048;-90
2022/09/21 13:44:56;;;;;;;3.50;0.65;;;;;;;;;;5075996;28;20454;-90
2022/09/21 13:47:31;;;;;;;2.80;0.80;;;;;;;;;;5076150;28;20055;-89
2022/09/21 13:50:00;;;;;;;2.80;0.73;;;;;;;;;;5075788;28;20048;-93
2022/09/21 13:52:30;;;;;;;3.67;0.90;;;;;;;;;;5093477;28;20055;-92
2022/09/21 13:54:59;;;;;;;2.17;0.82;;;;;;;;;;5093903;28;20051;-89
2022/09/21 13:57:37;;;;;;;1.98;0.70;;;;;;;;;;5075894;28;20051;-91
2022/09/21 14:00:08;;;;;;;3.30;0.70;;;;;;;;;;5093603;28;20147;-91
2022/09/21 14:02:37;;;;;;;4.10;0.90;;;;;;;;;;5077540;28;20480;-90
2022/09/21 14:05:22;;;;;;;5.68;1.00;;;;;;;;;;5079571;28;20052;-91
2022/09/21 14:07:55;;;;;;;1.38;0.50;;;;;;;;;;5080126;28;20048;-92
2022/09/21 14:10:23;;;;;;;2.10;0.80;;;;;;;;;;5080512;28;20039;-93
2022/09/21 14:12:50;;;;;;;2.53;0.93;;;;;;;;;;5098003;28;20056;-91
2022/09/21 14:15:18;;;;;;;3.92;0.77;;;;;;;;;;5080119;28;20522;-93
2022/09/21 14:17:45;;;;;;;5.45;1.10;;;;;;;;;;5097809;28;20486;-90
2022/09/21 14:20:26;;;;;;;4.88;1.73;;;;;;;;;;5097568;28;20047;-92
2022/09/21 14:23:10;;;;;;;6.85;1.10;;;;;;;;;;5079732;28;20131;-93
2022/09/21 14:25:51;;;;;;;3.95;1.98;;;;;;;;;;5097186;28;20048;-91
2022/09/21 14:28:26;;;;;;;2.95;0.80;;;;;;;;;;5079474;28;20091;-91
2022/09/21 14:30:55;;;;;;;1.30;0.70;;;;;;;;;;5079605;28;20143;-92
2022/09/21 14:33:32;;;;;;;2.78;0.55;;;;;;;;;;5079622;28;20059;-93
2022/09/21 14:36:02;;;;;;;2.08;0.60;;;;;;;;;;5097265;28;20048;-90
2022/09/21 14:38:34;;;;;;;2.55;0.77;;;;;;;;;;5097315;28;20147;-91
2022/09/21 14:41:06;;;;;;;2.15;0.55;;;;;;;;;;5097929;28;20094;-90
2022/09/21 14:43:34;;;;;;;1.63;0.70;;;;;;;;;;5080411;28;20047;-91
2022/09/21 14:46:09;;;;;;;2.80;1.10;;;;;;;;;;5079819;28;20138;-93
2022/09/21 14:48:43;;;;;;;2.40;0.60;;;;;;;;;;5081530;28;20044;-92
2022/09/21 14:51:18;;;;;;;2.38;0.60;;;;;;;;;;5078709;28;20071;-93
2022/09/21 14:53:54;;;;;;;2.92;0.73;;;;;;;;;;5078963;28;20044;-93
2022/09/21 14:56:50;;;;;;;0.57;0.47;;;;;;;;;;5096675;28;20130;-92
2022/09/21 14:59:28;;;;;;;3.30;0.73;;;;;;;;;;5078912;28;20389;-94
2022/09/21 15:01:58;;;;;;;2.70;0.60;;;;;;;;;;5078864;28;20063;-91
2022/09/21 15:04:28;;;;;;;1.83;0.52;;;;;;;;;;5096106;28;20416;-90
2022/09/21 15:13:19;;;;;;;1.85;0.70;;;;;;;;;;5096289;28;20127;-92
2022/09/21 15:16:08;;;;;;;1.63;0.70;;;;;;;;;;5096447;28;20131;-93
2022/09/21 15:18:40;;;;;;;1.10;0.60;;;;;;;;;;5078401;28;20102;-92
2022/09/21 15:21:22;;;;;;;3.13;0.80;;;;;;;;;;5078265;28;20408;-92
2022/09/21 15:23:51;;;;;;;1.95;0.70;;;;;;;;;;5078148;28;20063;-91
2022/09/21 15:26:25;;;;;;;1.50;0.70;;;;;;;;;;5078351;28;20484;-93